Cologne, New Jersey
Current Conditions -  °F | °C
As of 2:12 PM on Thursday 27 Nov 2014 (Local Time) from KACY Reporting Station
Scattered Clouds Scattered Clouds  
Wind Chill: 35°   Ceiling: Unl
Heat Index: 42°   Visibility: 10mi
Dew Point: 31°   Wind: 14mph
Humidity: 65%   Direction: 300°WNW
Pressure: 29.99"   Gusts: NA
Location:  39.5°N, 74.61°W
Report Text: KACY 271912Z 30012KT 10SM SCT028 06/M01 A2999 RMK AO2 T00561006
Loading
Personal Weather Stations






























Interactive Weather Map New forecast layout! Learn more

10-Day Weather Forecast

Advertisements
Track Severe Weather on mobile